Pagina principale
METAR-TAF:

METAR-TAF

Aeroporti :

Curaçao, Antille olandesi

Aeroporto Internazionale di Hato

latitudine: 12-12N, longitudine: 068-58W, altezza: 9 m

Osservazione

Il bollettino è stato emesso 13 minuti fa, alle 06:00 UTC
Vento 13 kt da est
Temperature 25°C
Umidità 79%
Pressione 1016 hPa
Visibilità 10 km o più
Nubi sparse ad un'altezza di 1700 ft

METAR: TNCC 230600Z 08013KT 9999 SCT017 25/21 Q1016 NOSIG

Ora: 02:13 (06:13 UTC)

Previsione

Il bollettino è stato emesso 2 ore e 13 minuti fa, alle 04:00 UTC
Previsione valida dal 23 alle 06 UTC al 24 alle 06 UTC
Vento 12 kt da est
Visibilità 10 km o più
Nubi sparse ad un'altezza di 1800 ft
Temporaneamente
dal 23 alle 06 UTC al 24 alle 06 UTC
Visibilità: 5000 m
Nuvoloso ad un'altezza di 1500 ft
rovesci di pioggia

TAF: TNCC 230400Z 2306/2406 09012KT 9999 SCT018 TEMPO 2306/2406 5000 SHRA BKN015

Osservazioni e previsioni meteorologiche di più di 4000 aeroporti (messaggi METAR e TAF).

Le stazioni disponibili sono rappresentate dai dischi gialli e rossi sulla carta.

Puntare il mouse per vedere il nome della stazione.

Clicca sopra per visualizzare le osservazioni e previsioni meteorologiche.

Per cambiare la mappa : fare clic sui pulsanti verdi con una croce nera per ingrandire, il pulsante verde con un trattino per diminuire, o sulla freccia verde per le mappe adiacenti.


METAR-TAF: